sensor_id;sensor_type;location;lat;lon;timestamp;pressure;altitude;pressure_sealevel;temperature;humidity
15870;BME280;63464;51.344;-1.634;2022-10-19T00:50:36;100849.50;;;12.32;100.00
15870;BME280;63464;51.344;-1.634;2022-10-19T00:53:10;100853.26;;;12.41;100.00
15870;BME280;63464;51.344;-1.634;2022-10-19T00:55:43;100854.33;;;12.45;100.00
15870;BME280;63464;51.344;-1.634;2022-10-19T00:58:16;100840.94;;;12.47;100.00
15870;BME280;63464;51.344;-1.634;2022-10-19T01:00:47;100840.94;;;12.47;100.00
15870;BME280;63464;51.344;-1.634;2022-10-19T01:06:18;100885.90;;;12.38;100.00
15870;BME280;63464;51.344;-1.634;2022-10-19T05:48:07;100546.57;;;12.08;100.00
15870;BME280;63464;51.344;-1.634;2022-10-19T05:50:39;100548.66;;;12.16;100.00
15870;BME280;63464;51.344;-1.634;2022-10-19T05:53:11;100554.00;;;12.15;100.00
15870;BME280;63464;51.344;-1.634;2022-10-19T05:55:43;100549.23;;;12.15;100.00
15870;BME280;63464;51.344;-1.634;2022-10-19T05:58:14;100538.58;;;12.20;100.00
15870;BME280;63464;51.344;-1.634;2022-10-19T06:00:50;100527.36;;;12.25;100.00
15870;BME280;63464;51.344;-1.634;2022-10-19T06:03:23;100529.66;;;12.20;100.00
15870;BME280;63464;51.344;-1.634;2022-10-19T06:05:56;100527.06;;;12.26;100.00
15870;BME280;63464;51.344;-1.634;2022-10-19T06:08:28;100525.97;;;12.25;100.00
15870;BME280;63464;51.344;-1.634;2022-10-19T06:14:11;100506.58;;;12.36;100.00
15870;BME280;63464;51.344;-1.634;2022-10-19T06:16:44;100522.24;;;12.32;100.00
15870;BME280;63464;51.344;-1.634;2022-10-19T06:19:17;100527.56;;;12.28;100.00
15870;BME280;63464;51.344;-1.634;2022-10-19T06:21:48;100518.30;;;12.33;100.00
15870;BME280;63464;51.344;-1.634;2022-10-19T06:24:19;100505.75;;;12.36;100.00
15870;BME280;63464;51.344;-1.634;2022-10-19T06:26:49;100508.45;;;12.41;100.00
15870;BME280;63464;51.344;-1.634;2022-10-19T06:29:21;100503.67;;;12.41;100.00
15870;BME280;63464;51.344;-1.634;2022-10-19T06:31:52;100496.00;;;12.36;100.00
15870;BME280;63464;51.344;-1.634;2022-10-19T06:34:26;100497.63;;;12.37;100.00
15870;BME280;63464;51.344;-1.634;2022-10-19T06:36:58;100500.41;;;12.37;100.00
15870;BME280;63464;51.344;-1.634;2022-10-19T06:39:30;100502.05;;;12.40;100.00
15870;BME280;63464;51.344;-1.634;2022-10-19T06:42:02;100505.06;;;12.41;100.00
15870;BME280;63464;51.344;-1.634;2022-10-19T06:44:34;100499.03;;;12.53;100.00
15870;BME280;63464;51.344;-1.634;2022-10-19T06:47:07;100507.83;;;12.44;100.00
15870;BME280;63464;51.344;-1.634;2022-10-19T06:49:39;100509.16;;;12.46;100.00
15870;BME280;63464;51.344;-1.634;2022-10-19T06:52:12;100498.58;;;12.46;100.00
15870;BME280;63464;51.344;-1.634;2022-10-19T06:54:42;100487.67;;;12.49;100.00
15870;BME280;63464;51.344;-1.634;2022-10-19T06:57:14;100474.98;;;12.57;100.00
15870;BME280;63464;51.344;-1.634;2022-10-19T06:59:44;100483.49;;;12.63;100.00
15870;BME280;63464;51.344;-1.634;2022-10-19T07:02:15;100480.41;;;12.64;100.00
15870;BME280;63464;51.344;-1.634;2022-10-19T07:04:46;100479.94;;;12.60;100.00
15870;BME280;63464;51.344;-1.634;2022-10-19T07:07:17;100487.28;;;12.69;100.00
15870;BME280;63464;51.344;-1.634;2022-10-19T07:09:49;100484.52;;;12.67;100.00
15870;BME280;63464;51.344;-1.634;2022-10-19T07:12:21;100476.17;;;12.67;100.00
15870;BME280;63464;51.344;-1.634;2022-10-19T07:17:52;100454.67;;;12.70;100.00
15870;BME280;63464;51.344;-1.634;2022-10-19T07:23:24;100449.24;;;12.90;100.00
15870;BME280;63464;51.344;-1.634;2022-10-19T07:25:57;100460.19;;;12.86;100.00
15870;BME280;63464;51.344;-1.634;2022-10-19T07:28:31;100463.71;;;12.92;100.00
15870;BME280;63464;51.344;-1.634;2022-10-19T07:31:08;100462.61;;;12.90;100.00
15870;BME280;63464;51.344;-1.634;2022-10-19T07:33:41;100452.12;;;12.98;100.00
15870;BME280;63464;51.344;-1.634;2022-10-19T07:36:13;100460.59;;;12.93;100.00
15870;BME280;63464;51.344;-1.634;2022-10-19T07:38:44;100462.19;;;12.97;100.00
15870;BME280;63464;51.344;-1.634;2022-10-19T07:44:32;100445.62;;;13.03;100.00
15870;BME280;63464;51.344;-1.634;2022-10-19T07:47:05;100459.30;;;13.02;100.00
15870;BME280;63464;51.344;-1.634;2022-10-19T07:49:41;100451.73;;;13.05;100.00
15870;BME280;63464;51.344;-1.634;2022-10-19T07:55:12;100432.80;;;13.29;100.00
15870;BME280;63464;51.344;-1.634;2022-10-19T08:00:45;100425.65;;;13.37;100.00
15870;BME280;63464;51.344;-1.634;2022-10-19T08:06:17;100439.08;;;13.59;100.00
15870;BME280;63464;51.344;-1.634;2022-10-19T08:08:50;100446.05;;;13.59;100.00
15870;BME280;63464;51.344;-1.634;2022-10-19T08:11:23;100447.33;;;13.64;100.00
15870;BME280;63464;51.344;-1.634;2022-10-19T08:13:57;100443.90;;;13.67;100.00
15870;BME280;63464;51.344;-1.634;2022-10-19T08:16:33;100446.45;;;13.78;100.00
15870;BME280;63464;51.344;-1.634;2022-10-19T08:19:07;100432.63;;;13.73;100.00
15870;BME280;63464;51.344;-1.634;2022-10-19T08:21:40;100420.31;;;13.85;100.00
15870;BME280;63464;51.344;-1.634;2022-10-19T08:24:21;100410.40;;;13.79;100.00
15870;BME280;63464;51.344;-1.634;2022-10-19T08:26:52;100412.38;;;13.89;100.00
15870;BME280;63464;51.344;-1.634;2022-10-19T08:29:25;100416.36;;;13.97;100.00
15870;BME280;63464;51.344;-1.634;2022-10-19T08:31:58;100416.23;;;13.91;100.00
15870;BME280;63464;51.344;-1.634;2022-10-19T08:34:29;100407.68;;;13.98;100.00
15870;BME280;63464;51.344;-1.634;2022-10-19T08:37:02;100406.07;;;13.95;100.00
15870;BME280;63464;51.344;-1.634;2022-10-19T08:39:33;100400.23;;;14.05;100.00
15870;BME280;63464;51.344;-1.634;2022-10-19T08:42:10;100395.17;;;14.07;100.00
15870;BME280;63464;51.344;-1.634;2022-10-19T08:47:54;100395.27;;;14.24;100.00
15870;BME280;63464;51.344;-1.634;2022-10-19T08:50:28;100398.06;;;14.24;100.00
15870;BME280;63464;51.344;-1.634;2022-10-19T08:53:03;100410.33;;;14.34;100.00
15870;BME280;63464;51.344;-1.634;2022-10-19T08:55:40;100406.65;;;14.47;100.00
15870;BME280;63464;51.344;-1.634;2022-10-19T08:58:27;100402.63;;;14.51;100.00
15870;BME280;63464;51.344;-1.634;2022-10-19T09:01:01;100409.97;;;14.49;100.00
15870;BME280;63464;51.344;-1.634;2022-10-19T09:03:37;100392.94;;;14.48;100.00
15870;BME280;63464;51.344;-1.634;2022-10-19T09:09:12;100369.50;;;14.67;100.00
15870;BME280;63464;51.344;-1.634;2022-10-19T09:11:47;100376.11;;;14.59;100.00
15870;BME280;63464;51.344;-1.634;2022-10-19T09:14:22;100364.16;;;14.76;100.00
15870;BME280;63464;51.344;-1.634;2022-10-19T09:16:52;100351.75;;;14.71;100.00
15870;BME280;63464;51.344;-1.634;2022-10-19T09:19:27;100357.37;;;14.80;100.00
15870;BME280;63464;51.344;-1.634;2022-10-19T09:22:02;100348.76;;;14.96;100.00
15870;BME280;63464;51.344;-1.634;2022-10-19T09:24:40;100349.17;;;15.00;100.00
15870;BME280;63464;51.344;-1.634;2022-10-19T09:27:15;100341.54;;;15.21;100.00
15870;BME280;63464;51.344;-1.634;2022-10-19T09:33:00;100325.89;;;15.37;100.00
15870;BME280;63464;51.344;-1.634;2022-10-19T09:35:26;100322.27;;;15.45;100.00
15870;BME280;63464;51.344;-1.634;2022-10-19T09:41:14;100316.05;;;15.57;100.00
15870;BME280;63464;51.344;-1.634;2022-10-19T09:43:49;100321.37;;;15.47;100.00
15870;BME280;63464;51.344;-1.634;2022-10-19T09:46:31;100317.75;;;15.38;100.00
15870;BME280;63464;51.344;-1.634;2022-10-19T09:49:04;100311.09;;;15.54;100.00
15870;BME280;63464;51.344;-1.634;2022-10-19T09:51:50;100311.09;;;15.54;100.00
15870;BME280;63464;51.344;-1.634;2022-10-19T09:54:31;100311.48;;;15.32;100.00
15870;BME280;63464;51.344;-1.634;2022-10-19T10:00:01;100313.72;;;15.59;100.00
15870;BME280;63464;51.344;-1.634;2022-10-19T10:05:33;100293.52;;;15.76;100.00
15870;BME280;63464;51.344;-1.634;2022-10-19T10:08:12;100305.63;;;15.83;100.00
15870;BME280;63464;51.344;-1.634;2022-10-19T10:13:50;100294.77;;;15.73;100.00
15870;BME280;63464;51.344;-1.634;2022-10-19T10:16:24;100294.77;;;15.73;100.00
15870;BME280;63464;51.344;-1.634;2022-10-19T10:18:59;100299.27;;;15.80;100.00
15870;BME280;63464;51.344;-1.634;2022-10-19T10:21:32;100289.94;;;15.90;100.00
15870;BME280;63464;51.344;-1.634;2022-10-19T10:24:10;100271.55;;;15.96;100.00
